sensor_id;sensor_type;location;lat;lon;timestamp;temperature;humidity
33994;DHT22;20673;48.980;8.138;2022-09-29T00:00:21;7.70;99.90
33994;DHT22;20673;48.980;8.138;2022-09-29T00:02:47;7.90;99.90
33994;DHT22;20673;48.980;8.138;2022-09-29T00:05:13;7.90;99.90
33994;DHT22;20673;48.980;8.138;2022-09-29T00:07:39;8.00;99.90
33994;DHT22;20673;48.980;8.138;2022-09-29T00:10:06;8.10;99.90
33994;DHT22;20673;48.980;8.138;2022-09-29T00:12:32;8.10;99.90
33994;DHT22;20673;48.980;8.138;2022-09-29T00:14:58;8.20;99.90
33994;DHT22;20673;48.980;8.138;2022-09-29T00:17:24;8.30;99.90
33994;DHT22;20673;48.980;8.138;2022-09-29T00:19:50;8.30;99.90
33994;DHT22;20673;48.980;8.138;2022-09-29T00:22:17;8.30;99.90
33994;DHT22;20673;48.980;8.138;2022-09-29T00:24:43;8.30;99.90
33994;DHT22;20673;48.980;8.138;2022-09-29T00:27:14;8.30;99.90
33994;DHT22;20673;48.980;8.138;2022-09-29T00:29:40;8.30;99.90
33994;DHT22;20673;48.980;8.138;2022-09-29T00:32:06;8.20;99.90
33994;DHT22;20673;48.980;8.138;2022-09-29T00:34:33;8.20;99.90
33994;DHT22;20673;48.980;8.138;2022-09-29T00:36:59;8.20;99.90
33994;DHT22;20673;48.980;8.138;2022-09-29T00:39:25;8.20;99.90
33994;DHT22;20673;48.980;8.138;2022-09-29T00:41:52;8.20;99.90
33994;DHT22;20673;48.980;8.138;2022-09-29T00:49:31;8.20;99.90
33994;DHT22;20673;48.980;8.138;2022-09-29T00:52:16;8.20;99.90
33994;DHT22;20673;48.980;8.138;2022-09-29T00:54:51;8.40;99.90
33994;DHT22;20673;48.980;8.138;2022-09-29T00:57:19;8.50;99.90
33994;DHT22;20673;48.980;8.138;2022-09-29T00:59:51;8.50;99.90
33994;DHT22;20673;48.980;8.138;2022-09-29T01:02:21;8.50;99.90
33994;DHT22;20673;48.980;8.138;2022-09-29T01:04:49;8.50;99.90
33994;DHT22;20673;48.980;8.138;2022-09-29T01:07:20;8.50;99.90
33994;DHT22;20673;48.980;8.138;2022-09-29T01:09:49;8.60;99.90
33994;DHT22;20673;48.980;8.138;2022-09-29T01:12:19;8.70;99.90
33994;DHT22;20673;48.980;8.138;2022-09-29T01:14:45;8.70;99.90
33994;DHT22;20673;48.980;8.138;2022-09-29T01:17:13;8.90;99.90
33994;DHT22;20673;48.980;8.138;2022-09-29T01:25:24;8.80;99.90
33994;DHT22;20673;48.980;8.138;2022-09-29T01:31:04;8.90;99.90
33994;DHT22;20673;48.980;8.138;2022-09-29T01:37:09;8.80;99.90
33994;DHT22;20673;48.980;8.138;2022-09-29T01:39:50;8.90;99.90
33994;DHT22;20673;48.980;8.138;2022-09-29T01:42:31;8.90;99.90
33994;DHT22;20673;48.980;8.138;2022-09-29T01:47:44;9.00;99.90
33994;DHT22;20673;48.980;8.138;2022-09-29T01:50:19;8.90;99.90
33994;DHT22;20673;48.980;8.138;2022-09-29T01:52:55;8.90;99.90
33994;DHT22;20673;48.980;8.138;2022-09-29T01:55:24;8.90;99.90
33994;DHT22;20673;48.980;8.138;2022-09-29T01:58:01;8.90;99.90
33994;DHT22;20673;48.980;8.138;2022-09-29T02:00:34;8.90;99.90
33994;DHT22;20673;48.980;8.138;2022-09-29T02:03:09;8.90;99.90
33994;DHT22;20673;48.980;8.138;2022-09-29T02:05:53;8.90;99.90
33994;DHT22;20673;48.980;8.138;2022-09-29T02:08:25;8.90;99.90
33994;DHT22;20673;48.980;8.138;2022-09-29T02:11:05;8.90;99.90
33994;DHT22;20673;48.980;8.138;2022-09-29T02:13:40;8.90;99.90
33994;DHT22;20673;48.980;8.138;2022-09-29T02:16:16;8.90;99.90
33994;DHT22;20673;48.980;8.138;2022-09-29T02:18:53;8.80;99.90
33994;DHT22;20673;48.980;8.138;2022-09-29T02:21:26;8.80;99.90
33994;DHT22;20673;48.980;8.138;2022-09-29T02:23:53;8.90;99.90
33994;DHT22;20673;48.980;8.138;2022-09-29T02:26:20;8.80;99.90
33994;DHT22;20673;48.980;8.138;2022-09-29T02:28:49;8.80;99.90
33994;DHT22;20673;48.980;8.138;2022-09-29T02:31:18;8.80;99.90
33994;DHT22;20673;48.980;8.138;2022-09-29T02:33:44;8.70;99.90
33994;DHT22;20673;48.980;8.138;2022-09-29T02:48:34;8.70;99.90
33994;DHT22;20673;48.980;8.138;2022-09-29T03:00:04;8.70;99.90
33994;DHT22;20673;48.980;8.138;2022-09-29T03:02:36;8.80;99.90
33994;DHT22;20673;48.980;8.138;2022-09-29T03:05:05;8.80;99.90
33994;DHT22;20673;48.980;8.138;2022-09-29T03:07:36;8.80;99.90
33994;DHT22;20673;48.980;8.138;2022-09-29T03:10:04;8.80;99.90
33994;DHT22;20673;48.980;8.138;2022-09-29T03:12:33;8.80;99.90
33994;DHT22;20673;48.980;8.138;2022-09-29T03:14:59;8.80;99.90
33994;DHT22;20673;48.980;8.138;2022-09-29T03:17:25;8.80;99.90
33994;DHT22;20673;48.980;8.138;2022-09-29T03:19:52;8.70;99.90
33994;DHT22;20673;48.980;8.138;2022-09-29T03:22:18;8.70;99.90
33994;DHT22;20673;48.980;8.138;2022-09-29T03:24:44;8.70;99.90
33994;DHT22;20673;48.980;8.138;2022-09-29T03:27:10;8.70;99.90
33994;DHT22;20673;48.980;8.138;2022-09-29T03:29:37;8.70;99.90
33994;DHT22;20673;48.980;8.138;2022-09-29T03:32:04;8.70;99.90
33994;DHT22;20673;48.980;8.138;2022-09-29T03:34:31;8.60;99.90
33994;DHT22;20673;48.980;8.138;2022-09-29T03:36:58;8.60;99.90
33994;DHT22;20673;48.980;8.138;2022-09-29T03:39:24;8.60;99.90
33994;DHT22;20673;48.980;8.138;2022-09-29T03:41:51;8.60;99.90
33994;DHT22;20673;48.980;8.138;2022-09-29T03:44:17;8.60;99.90
33994;DHT22;20673;48.980;8.138;2022-09-29T03:46:44;8.60;99.90
33994;DHT22;20673;48.980;8.138;2022-09-29T03:49:13;8.70;99.90
33994;DHT22;20673;48.980;8.138;2022-09-29T03:51:40;8.70;99.90
33994;DHT22;20673;48.980;8.138;2022-09-29T03:54:07;8.70;99.90
33994;DHT22;20673;48.980;8.138;2022-09-29T03:56:35;8.70;99.90
33994;DHT22;20673;48.980;8.138;2022-09-29T03:59:03;8.70;99.90
33994;DHT22;20673;48.980;8.138;2022-09-29T04:01:30;8.70;99.90
33994;DHT22;20673;48.980;8.138;2022-09-29T04:03:57;8.70;99.90
33994;DHT22;20673;48.980;8.138;2022-09-29T04:06:23;8.70;99.90
33994;DHT22;20673;48.980;8.138;2022-09-29T04:08:49;8.70;99.90
33994;DHT22;20673;48.980;8.138;2022-09-29T04:11:16;8.70;99.90
33994;DHT22;20673;48.980;8.138;2022-09-29T04:13:42;8.70;99.90
33994;DHT22;20673;48.980;8.138;2022-09-29T04:16:08;8.70;99.90
33994;DHT22;20673;48.980;8.138;2022-09-29T04:18:35;8.70;99.90
33994;DHT22;20673;48.980;8.138;2022-09-29T04:21:06;8.70;99.90
33994;DHT22;20673;48.980;8.138;2022-09-29T04:23:33;8.70;99.90
33994;DHT22;20673;48.980;8.138;2022-09-29T04:25:59;8.70;99.90
33994;DHT22;20673;48.980;8.138;2022-09-29T04:28:31;8.70;99.90
33994;DHT22;20673;48.980;8.138;2022-09-29T04:30:57;8.70;99.90
33994;DHT22;20673;48.980;8.138;2022-09-29T04:33:24;8.70;99.90
33994;DHT22;20673;48.980;8.138;2022-09-29T04:35:50;8.70;99.90
33994;DHT22;20673;48.980;8.138;2022-09-29T04:38:16;8.70;99.90
33994;DHT22;20673;48.980;8.138;2022-09-29T04:40:43;8.70;99.90
33994;DHT22;20673;48.980;8.138;2022-09-29T04:43:09;8.80;99.90
33994;DHT22;20673;48.980;8.138;2022-09-29T04:45:35;8.80;99.90
33994;DHT22;20673;48.980;8.138;2022-09-29T04:48:01;8.80;99.90
33994;DHT22;20673;48.980;8.138;2022-09-29T04:50:27;8.80;99.90
33994;DHT22;20673;48.980;8.138;2022-09-29T04:52:53;8.80;99.90
33994;DHT22;20673;48.980;8.138;2022-09-29T04:55:19;8.80;99.90
33994;DHT22;20673;48.980;8.138;2022-09-29T04:57:46;8.90;99.90
33994;DHT22;20673;48.980;8.138;2022-09-29T05:00:13;8.90;99.90
33994;DHT22;20673;48.980;8.138;2022-09-29T05:02:40;8.90;99.90
33994;DHT22;20673;48.980;8.138;2022-09-29T05:05:08;8.90;99.90
33994;DHT22;20673;48.980;8.138;2022-09-29T05:07:36;8.90;99.90
33994;DHT22;20673;48.980;8.138;2022-09-29T05:10:03;8.90;99.90
33994;DHT22;20673;48.980;8.138;2022-09-29T05:12:30;8.80;99.90
33994;DHT22;20673;48.980;8.138;2022-09-29T05:14:57;8.90;99.90
33994;DHT22;20673;48.980;8.138;2022-09-29T05:17:23;9.00;99.90
33994;DHT22;20673;48.980;8.138;2022-09-29T05:19:49;8.90;99.90
33994;DHT22;20673;48.980;8.138;2022-09-29T05:22:16;8.90;99.90
33994;DHT22;20673;48.980;8.138;2022-09-29T05:24:44;8.90;99.90
33994;DHT22;20673;48.980;8.138;2022-09-29T05:27:10;8.90;99.90
33994;DHT22;20673;48.980;8.138;2022-09-29T05:29:36;8.90;99.90
33994;DHT22;20673;48.980;8.138;2022-09-29T05:32:02;8.90;99.90
33994;DHT22;20673;48.980;8.138;2022-09-29T05:34:28;8.90;99.90
33994;DHT22;20673;48.980;8.138;2022-09-29T05:36:54;8.80;99.90
33994;DHT22;20673;48.980;8.138;2022-09-29T05:39:21;8.90;99.90
33994;DHT22;20673;48.980;8.138;2022-09-29T05:41:47;8.90;99.90
33994;DHT22;20673;48.980;8.138;2022-09-29T05:44:13;8.90;99.90
33994;DHT22;20673;48.980;8.138;2022-09-29T05:46:41;8.90;99.90
33994;DHT22;20673;48.980;8.138;2022-09-29T05:49:08;8.90;99.90
33994;DHT22;20673;48.980;8.138;2022-09-29T05:51:35;8.90;99.90
33994;DHT22;20673;48.980;8.138;2022-09-29T05:54:01;8.90;99.90
33994;DHT22;20673;48.980;8.138;2022-09-29T05:56:28;8.90;99.90
33994;DHT22;20673;48.980;8.138;2022-09-29T05:58:54;8.90;99.90
33994;DHT22;20673;48.980;8.138;2022-09-29T06:01:22;8.90;99.90
33994;DHT22;20673;48.980;8.138;2022-09-29T06:03:52;8.90;99.90
33994;DHT22;20673;48.980;8.138;2022-09-29T06:06:22;8.90;99.90
33994;DHT22;20673;48.980;8.138;2022-09-29T06:08:51;8.90;99.90
33994;DHT22;20673;48.980;8.138;2022-09-29T06:11:24;8.90;99.90
33994;DHT22;20673;48.980;8.138;2022-09-29T06:13:50;8.90;99.90
33994;DHT22;20673;48.980;8.138;2022-09-29T06:16:18;9.00;99.90
33994;DHT22;20673;48.980;8.138;2022-09-29T06:18:47;8.90;99.90
33994;DHT22;20673;48.980;8.138;2022-09-29T06:21:16;8.90;99.90
33994;DHT22;20673;48.980;8.138;2022-09-29T06:23:44;9.00;99.90
33994;DHT22;20673;48.980;8.138;2022-09-29T06:26:13;9.00;99.90
33994;DHT22;20673;48.980;8.138;2022-09-29T06:28:40;9.10;99.90
33994;DHT22;20673;48.980;8.138;2022-09-29T06:31:12;9.20;99.90
33994;DHT22;20673;48.980;8.138;2022-09-29T06:33:41;9.20;99.90
33994;DHT22;20673;48.980;8.138;2022-09-29T06:39:06;9.30;99.90
33994;DHT22;20673;48.980;8.138;2022-09-29T06:41:35;9.30;99.90
33994;DHT22;20673;48.980;8.138;2022-09-29T06:44:01;9.30;99.90
33994;DHT22;20673;48.980;8.138;2022-09-29T06:46:28;9.30;99.90
33994;DHT22;20673;48.980;8.138;2022-09-29T06:48:55;9.40;99.90
33994;DHT22;20673;48.980;8.138;2022-09-29T06:51:23;9.40;99.90
33994;DHT22;20673;48.980;8.138;2022-09-29T06:53:50;9.40;99.90
33994;DHT22;20673;48.980;8.138;2022-09-29T06:56:17;9.40;99.90
33994;DHT22;20673;48.980;8.138;2022-09-29T06:58:44;9.40;99.90
33994;DHT22;20673;48.980;8.138;2022-09-29T07:01:12;9.40;99.90
33994;DHT22;20673;48.980;8.138;2022-09-29T07:03:38;9.40;99.90
33994;DHT22;20673;48.980;8.138;2022-09-29T07:06:06;9.40;99.90
33994;DHT22;20673;48.980;8.138;2022-09-29T07:08:35;9.40;99.90
33994;DHT22;20673;48.980;8.138;2022-09-29T07:11:08;9.50;99.90
33994;DHT22;20673;48.980;8.138;2022-09-29T07:13:33;9.50;99.90
33994;DHT22;20673;48.980;8.138;2022-09-29T07:16:05;9.60;99.90
33994;DHT22;20673;48.980;8.138;2022-09-29T07:18:36;9.60;99.90
33994;DHT22;20673;48.980;8.138;2022-09-29T07:21:04;9.70;99.90
33994;DHT22;20673;48.980;8.138;2022-09-29T07:23:32;9.80;99.90
33994;DHT22;20673;48.980;8.138;2022-09-29T07:25:58;9.80;99.90
33994;DHT22;20673;48.980;8.138;2022-09-29T07:28:25;9.80;99.90
33994;DHT22;20673;48.980;8.138;2022-09-29T07:31:04;9.80;99.90
33994;DHT22;20673;48.980;8.138;2022-09-29T07:33:31;9.90;99.90
33994;DHT22;20673;48.980;8.138;2022-09-29T07:35:58;9.90;99.90
33994;DHT22;20673;48.980;8.138;2022-09-29T07:38:28;9.90;99.90
33994;DHT22;20673;48.980;8.138;2022-09-29T07:41:06;10.00;99.90
33994;DHT22;20673;48.980;8.138;2022-09-29T07:43:36;10.00;99.90
33994;DHT22;20673;48.980;8.138;2022-09-29T07:46:03;10.10;99.90
33994;DHT22;20673;48.980;8.138;2022-09-29T07:48:31;10.10;99.90
33994;DHT22;20673;48.980;8.138;2022-09-29T07:51:10;10.20;99.90
33994;DHT22;20673;48.980;8.138;2022-09-29T07:53:39;10.30;99.90
33994;DHT22;20673;48.980;8.138;2022-09-29T07:56:09;10.40;99.90
33994;DHT22;20673;48.980;8.138;2022-09-29T07:58:40;10.50;99.90
33994;DHT22;20673;48.980;8.138;2022-09-29T08:01:08;10.60;99.90
33994;DHT22;20673;48.980;8.138;2022-09-29T08:03:38;10.60;99.90
33994;DHT22;20673;48.980;8.138;2022-09-29T08:06:07;10.60;99.90
33994;DHT22;20673;48.980;8.138;2022-09-29T08:08:35;10.80;99.90
33994;DHT22;20673;48.980;8.138;2022-09-29T08:11:05;10.80;99.90
33994;DHT22;20673;48.980;8.138;2022-09-29T08:13:33;11.00;99.90
33994;DHT22;20673;48.980;8.138;2022-09-29T08:16:02;11.30;99.90
33994;DHT22;20673;48.980;8.138;2022-09-29T08:18:30;11.40;99.90
33994;DHT22;20673;48.980;8.138;2022-09-29T08:20:57;11.50;99.90
33994;DHT22;20673;48.980;8.138;2022-09-29T08:23:23;11.50;99.90
33994;DHT22;20673;48.980;8.138;2022-09-29T08:26:05;11.60;99.90
33994;DHT22;20673;48.980;8.138;2022-09-29T08:28:39;11.70;99.90
33994;DHT22;20673;48.980;8.138;2022-09-29T08:31:08;11.80;99.90
33994;DHT22;20673;48.980;8.138;2022-09-29T08:33:37;11.80;99.90
33994;DHT22;20673;48.980;8.138;2022-09-29T08:36:04;11.90;99.90
33994;DHT22;20673;48.980;8.138;2022-09-29T08:38:33;12.10;99.90
33994;DHT22;20673;48.980;8.138;2022-09-29T08:41:03;12.20;99.90
33994;DHT22;20673;48.980;8.138;2022-09-29T08:43:33;12.10;99.90
33994;DHT22;20673;48.980;8.138;2022-09-29T08:46:09;12.20;99.90
33994;DHT22;20673;48.980;8.138;2022-09-29T08:48:47;12.10;99.90
33994;DHT22;20673;48.980;8.138;2022-09-29T08:51:33;12.00;99.90
33994;DHT22;20673;48.980;8.138;2022-09-29T08:56:49;11.80;99.90
33994;DHT22;20673;48.980;8.138;2022-09-29T08:59:15;11.80;99.90
33994;DHT22;20673;48.980;8.138;2022-09-29T09:02:02;11.70;99.90
33994;DHT22;20673;48.980;8.138;2022-09-29T09:04:51;11.60;99.90
33994;DHT22;20673;48.980;8.138;2022-09-29T09:12:56;11.80;99.90
33994;DHT22;20673;48.980;8.138;2022-09-29T09:21:10;12.40;99.90
33994;DHT22;20673;48.980;8.138;2022-09-29T09:23:52;12.50;99.90
33994;DHT22;20673;48.980;8.138;2022-09-29T09:26:24;12.60;99.90
33994;DHT22;20673;48.980;8.138;2022-09-29T09:29:00;12.70;99.90
33994;DHT22;20673;48.980;8.138;2022-09-29T09:34:19;12.70;99.90
33994;DHT22;20673;48.980;8.138;2022-09-29T09:37:16;12.70;99.90
33994;DHT22;20673;48.980;8.138;2022-09-29T09:39:55;12.80;99.90
33994;DHT22;20673;48.980;8.138;2022-09-29T09:42:29;12.90;99.90
33994;DHT22;20673;48.980;8.138;2022-09-29T09:45:22;12.90;99.90
33994;DHT22;20673;48.980;8.138;2022-09-29T09:47:51;13.00;99.90
33994;DHT22;20673;48.980;8.138;2022-09-29T09:50:22;13.10;99.90
33994;DHT22;20673;48.980;8.138;2022-09-29T09:55:25;13.30;99.90
33994;DHT22;20673;48.980;8.138;2022-09-29T10:01:13;13.60;99.90
33994;DHT22;20673;48.980;8.138;2022-09-29T10:03:40;13.80;99.90
33994;DHT22;20673;48.980;8.138;2022-09-29T10:06:06;14.00;99.90
33994;DHT22;20673;48.980;8.138;2022-09-29T10:08:36;14.10;99.90
33994;DHT22;20673;48.980;8.138;2022-09-29T10:16:39;14.40;99.90
33994;DHT22;20673;48.980;8.138;2022-09-29T10:19:09;14.50;99.90
33994;DHT22;20673;48.980;8.138;2022-09-29T10:21:41;14.60;99.90
33994;DHT22;20673;48.980;8.138;2022-09-29T10:24:21;15.00;99.90
33994;DHT22;20673;48.980;8.138;2022-09-29T10:26:52;15.30;99.90
33994;DHT22;20673;48.980;8.138;2022-09-29T10:29:39;16.00;99.90
33994;DHT22;20673;48.980;8.138;2022-09-29T10:32:12;15.80;99.90
33994;DHT22;20673;48.980;8.138;2022-09-29T10:34:43;15.70;99.90
33994;DHT22;20673;48.980;8.138;2022-09-29T10:42:47;15.70;99.90
33994;DHT22;20673;48.980;8.138;2022-09-29T10:45:21;16.20;99.90
33994;DHT22;20673;48.980;8.138;2022-09-29T10:50:34;18.10;99.90
33994;DHT22;20673;48.980;8.138;2022-09-29T10:53:16;17.90;99.90
33994;DHT22;20673;48.980;8.138;2022-09-29T10:55:54;18.20;99.90
33994;DHT22;20673;48.980;8.138;2022-09-29T11:01:05;18.40;99.90
33994;DHT22;20673;48.980;8.138;2022-09-29T11:04:00;17.70;99.90
33994;DHT22;20673;48.980;8.138;2022-09-29T11:06:30;17.70;99.90
33994;DHT22;20673;48.980;8.138;2022-09-29T11:09:02;17.50;99.90
33994;DHT22;20673;48.980;8.138;2022-09-29T11:14:29;17.60;99.90
33994;DHT22;20673;48.980;8.138;2022-09-29T11:17:24;18.00;99.90
33994;DHT22;20673;48.980;8.138;2022-09-29T11:20:00;18.50;99.90
33994;DHT22;20673;48.980;8.138;2022-09-29T11:26:04;18.20;99.90
33994;DHT22;20673;48.980;8.138;2022-09-29T11:39:43;17.70;99.90
33994;DHT22;20673;48.980;8.138;2022-09-29T11:46:20;17.90;99.90
33994;DHT22;20673;48.980;8.138;2022-09-29T11:48:56;17.70;99.90
33994;DHT22;20673;48.980;8.138;2022-09-29T11:51:19;17.60;99.90
33994;DHT22;20673;48.980;8.138;2022-09-29T11:56:54;17.00;99.90
33994;DHT22;20673;48.980;8.138;2022-09-29T11:59:58;16.80;99.90
33994;DHT22;20673;48.980;8.138;2022-09-29T12:05:33;16.30;99.90
33994;DHT22;20673;48.980;8.138;2022-09-29T12:08:41;16.40;99.90
33994;DHT22;20673;48.980;8.138;2022-09-29T12:16:38;16.40;99.90
33994;DHT22;20673;48.980;8.138;2022-09-29T12:19:14;16.40;99.90
33994;DHT22;20673;48.980;8.138;2022-09-29T12:21:47;16.20;99.90
33994;DHT22;20673;48.980;8.138;2022-09-29T12:30:08;16.50;99.90
33994;DHT22;20673;48.980;8.138;2022-09-29T12:32:53;16.30;99.90
33994;DHT22;20673;48.980;8.138;2022-09-29T12:35:33;16.30;99.90
33994;DHT22;20673;48.980;8.138;2022-09-29T12:38:16;16.20;99.90
33994;DHT22;20673;48.980;8.138;2022-09-29T12:43:47;16.20;99.90
33994;DHT22;20673;48.980;8.138;2022-09-29T12:51:50;16.20;99.90
33994;DHT22;20673;48.980;8.138;2022-09-29T12:54:31;16.20;99.90
33994;DHT22;20673;48.980;8.138;2022-09-29T12:57:05;16.30;99.90
33994;DHT22;20673;48.980;8.138;2022-09-29T13:05:46;15.70;99.90
33994;DHT22;20673;48.980;8.138;2022-09-29T13:17:33;15.10;99.90
33994;DHT22;20673;48.980;8.138;2022-09-29T13:23:24;15.00;99.90
33994;DHT22;20673;48.980;8.138;2022-09-29T13:28:37;14.80;99.90
33994;DHT22;20673;48.980;8.138;2022-09-29T13:31:15;14.60;99.90
33994;DHT22;20673;48.980;8.138;2022-09-29T13:33:50;14.30;99.90
33994;DHT22;20673;48.980;8.138;2022-09-29T13:36:27;14.10;99.90
33994;DHT22;20673;48.980;8.138;2022-09-29T13:39:03;14.00;99.90
33994;DHT22;20673;48.980;8.138;2022-09-29T13:41:34;14.10;99.90
33994;DHT22;20673;48.980;8.138;2022-09-29T13:46:47;14.30;99.90
33994;DHT22;20673;48.980;8.138;2022-09-29T13:49:25;14.50;99.90
33994;DHT22;20673;48.980;8.138;2022-09-29T13:52:27;14.70;99.90
33994;DHT22;20673;48.980;8.138;2022-09-29T13:54:41;14.90;99.90
33994;DHT22;20673;48.980;8.138;2022-09-29T13:57:19;15.00;99.90
33994;DHT22;20673;48.980;8.138;2022-09-29T14:02:35;15.60;99.90
33994;DHT22;20673;48.980;8.138;2022-09-29T14:10:48;16.80;99.90
33994;DHT22;20673;48.980;8.138;2022-09-29T14:13:39;17.40;99.90
33994;DHT22;20673;48.980;8.138;2022-09-29T14:16:17;17.60;99.90
33994;DHT22;20673;48.980;8.138;2022-09-29T14:19:02;17.50;99.90
33994;DHT22;20673;48.980;8.138;2022-09-29T14:21:48;17.20;99.90
33994;DHT22;20673;48.980;8.138;2022-09-29T14:27:26;16.90;99.90
33994;DHT22;20673;48.980;8.138;2022-09-29T14:30:16;16.60;99.90
33994;DHT22;20673;48.980;8.138;2022-09-29T14:32:59;16.70;99.90
33994;DHT22;20673;48.980;8.138;2022-09-29T14:35:34;16.70;99.90
33994;DHT22;20673;48.980;8.138;2022-09-29T14:40:59;16.40;99.90
33994;DHT22;20673;48.980;8.138;2022-09-29T14:43:39;16.20;99.90
33994;DHT22;20673;48.980;8.138;2022-09-29T15:01:14;15.30;99.90
33994;DHT22;20673;48.980;8.138;2022-09-29T15:06:20;15.10;99.90
33994;DHT22;20673;48.980;8.138;2022-09-29T15:11:36;15.10;99.90
33994;DHT22;20673;48.980;8.138;2022-09-29T15:25:53;14.70;99.90
33994;DHT22;20673;48.980;8.138;2022-09-29T15:28:29;14.50;99.90
33994;DHT22;20673;48.980;8.138;2022-09-29T15:31:03;14.50;99.90
33994;DHT22;20673;48.980;8.138;2022-09-29T15:33:36;14.30;99.90
33994;DHT22;20673;48.980;8.138;2022-09-29T15:36:12;14.20;99.90
33994;DHT22;20673;48.980;8.138;2022-09-29T15:38:54;14.10;99.90
33994;DHT22;20673;48.980;8.138;2022-09-29T15:41:39;14.00;99.90
33994;DHT22;20673;48.980;8.138;2022-09-29T15:44:16;13.90;99.90
33994;DHT22;20673;48.980;8.138;2022-09-29T15:46:49;13.80;99.90
33994;DHT22;20673;48.980;8.138;2022-09-29T15:49:21;13.60;99.90
33994;DHT22;20673;48.980;8.138;2022-09-29T15:52:02;13.50;99.90
33994;DHT22;20673;48.980;8.138;2022-09-29T15:54:33;13.50;99.90
33994;DHT22;20673;48.980;8.138;2022-09-29T15:57:03;13.60;99.90
33994;DHT22;20673;48.980;8.138;2022-09-29T15:59:53;13.60;99.90
33994;DHT22;20673;48.980;8.138;2022-09-29T16:02:27;13.30;99.90
33994;DHT22;20673;48.980;8.138;2022-09-29T16:05:05;12.70;99.90
33994;DHT22;20673;48.980;8.138;2022-09-29T16:07:37;12.20;99.90
33994;DHT22;20673;48.980;8.138;2022-09-29T16:10:14;11.90;99.90
33994;DHT22;20673;48.980;8.138;2022-09-29T16:12:55;11.40;99.90
33994;DHT22;20673;48.980;8.138;2022-09-29T16:15:35;11.10;99.90
33994;DHT22;20673;48.980;8.138;2022-09-29T16:18:24;10.90;99.90
33994;DHT22;20673;48.980;8.138;2022-09-29T16:20:54;10.80;99.90
33994;DHT22;20673;48.980;8.138;2022-09-29T16:23:33;10.70;99.90
33994;DHT22;20673;48.980;8.138;2022-09-29T16:29:05;10.50;99.90
33994;DHT22;20673;48.980;8.138;2022-09-29T16:31:39;10.50;99.90
33994;DHT22;20673;48.980;8.138;2022-09-29T16:34:25;10.40;99.90
33994;DHT22;20673;48.980;8.138;2022-09-29T16:39:40;10.30;99.90
33994;DHT22;20673;48.980;8.138;2022-09-29T16:42:21;10.30;99.90
33994;DHT22;20673;48.980;8.138;2022-09-29T16:44:50;10.20;99.90
33994;DHT22;20673;48.980;8.138;2022-09-29T16:47:26;10.10;99.90
33994;DHT22;20673;48.980;8.138;2022-09-29T16:49:56;10.00;99.90
33994;DHT22;20673;48.980;8.138;2022-09-29T16:52:33;10.00;99.90
33994;DHT22;20673;48.980;8.138;2022-09-29T16:55:14;10.00;99.90
33994;DHT22;20673;48.980;8.138;2022-09-29T16:57:59;10.00;99.90
33994;DHT22;20673;48.980;8.138;2022-09-29T17:00:33;10.00;99.90
33994;DHT22;20673;48.980;8.138;2022-09-29T17:03:01;10.00;99.90
33994;DHT22;20673;48.980;8.138;2022-09-29T17:05:29;9.90;99.90
33994;DHT22;20673;48.980;8.138;2022-09-29T17:08:00;9.90;99.90
33994;DHT22;20673;48.980;8.138;2022-09-29T17:10:27;9.90;99.90
33994;DHT22;20673;48.980;8.138;2022-09-29T17:12:54;9.90;99.90
33994;DHT22;20673;48.980;8.138;2022-09-29T17:15:21;9.90;99.90
33994;DHT22;20673;48.980;8.138;2022-09-29T17:17:48;9.90;99.90
33994;DHT22;20673;48.980;8.138;2022-09-29T17:20:17;9.90;99.90
33994;DHT22;20673;48.980;8.138;2022-09-29T17:22:46;9.80;99.90
33994;DHT22;20673;48.980;8.138;2022-09-29T17:25:13;9.80;99.90
33994;DHT22;20673;48.980;8.138;2022-09-29T17:27:44;9.70;99.90
33994;DHT22;20673;48.980;8.138;2022-09-29T17:30:28;9.70;99.90
33994;DHT22;20673;48.980;8.138;2022-09-29T17:32:56;9.80;99.90
33994;DHT22;20673;48.980;8.138;2022-09-29T17:35:34;9.80;99.90
33994;DHT22;20673;48.980;8.138;2022-09-29T17:37:55;9.80;99.90
33994;DHT22;20673;48.980;8.138;2022-09-29T17:40:31;9.80;99.90
33994;DHT22;20673;48.980;8.138;2022-09-29T17:43:17;9.80;99.90
33994;DHT22;20673;48.980;8.138;2022-09-29T17:45:45;9.80;99.90
33994;DHT22;20673;48.980;8.138;2022-09-29T17:48:12;9.80;99.90
33994;DHT22;20673;48.980;8.138;2022-09-29T17:50:47;9.70;99.90
33994;DHT22;20673;48.980;8.138;2022-09-29T17:53:15;9.70;99.90
33994;DHT22;20673;48.980;8.138;2022-09-29T17:55:45;9.80;99.90
33994;DHT22;20673;48.980;8.138;2022-09-29T17:58:17;9.70;99.90
33994;DHT22;20673;48.980;8.138;2022-09-29T18:00:46;9.70;99.90
33994;DHT22;20673;48.980;8.138;2022-09-29T18:03:15;9.70;99.90
33994;DHT22;20673;48.980;8.138;2022-09-29T18:05:45;9.80;99.90
33994;DHT22;20673;48.980;8.138;2022-09-29T18:08:15;9.70;99.90
33994;DHT22;20673;48.980;8.138;2022-09-29T18:10:56;9.70;99.90
33994;DHT22;20673;48.980;8.138;2022-09-29T18:13:27;9.70;99.90
33994;DHT22;20673;48.980;8.138;2022-09-29T18:15:58;9.70;99.90
33994;DHT22;20673;48.980;8.138;2022-09-29T18:18:25;9.70;99.90
33994;DHT22;20673;48.980;8.138;2022-09-29T18:20:51;9.70;99.90
33994;DHT22;20673;48.980;8.138;2022-09-29T18:23:18;9.70;99.90
33994;DHT22;20673;48.980;8.138;2022-09-29T18:25:47;9.70;99.90
33994;DHT22;20673;48.980;8.138;2022-09-29T18:28:17;9.70;99.90
33994;DHT22;20673;48.980;8.138;2022-09-29T18:30:46;9.60;99.90
33994;DHT22;20673;48.980;8.138;2022-09-29T18:33:18;9.60;99.90
33994;DHT22;20673;48.980;8.138;2022-09-29T18:35:50;9.60;99.90
33994;DHT22;20673;48.980;8.138;2022-09-29T18:38:18;9.60;99.90
33994;DHT22;20673;48.980;8.138;2022-09-29T18:40:44;9.60;99.90
33994;DHT22;20673;48.980;8.138;2022-09-29T18:43:12;9.60;99.90
33994;DHT22;20673;48.980;8.138;2022-09-29T18:45:39;9.60;99.90
33994;DHT22;20673;48.980;8.138;2022-09-29T18:48:10;9.60;99.90
33994;DHT22;20673;48.980;8.138;2022-09-29T18:50:40;9.60;99.90
33994;DHT22;20673;48.980;8.138;2022-09-29T18:53:10;9.60;99.90
33994;DHT22;20673;48.980;8.138;2022-09-29T18:55:38;9.60;99.90
33994;DHT22;20673;48.980;8.138;2022-09-29T18:58:18;9.60;99.90
33994;DHT22;20673;48.980;8.138;2022-09-29T19:00:51;9.70;99.90
33994;DHT22;20673;48.980;8.138;2022-09-29T19:03:21;9.80;99.90
33994;DHT22;20673;48.980;8.138;2022-09-29T19:05:48;9.70;99.90
33994;DHT22;20673;48.980;8.138;2022-09-29T19:08:16;9.70;99.90
33994;DHT22;20673;48.980;8.138;2022-09-29T19:10:49;9.70;99.90
33994;DHT22;20673;48.980;8.138;2022-09-29T19:13:17;9.60;99.90
33994;DHT22;20673;48.980;8.138;2022-09-29T19:15:44;9.60;99.90
33994;DHT22;20673;48.980;8.138;2022-09-29T19:18:15;9.60;99.90
33994;DHT22;20673;48.980;8.138;2022-09-29T19:20:44;9.50;99.90
33994;DHT22;20673;48.980;8.138;2022-09-29T19:23:11;9.50;99.90
33994;DHT22;20673;48.980;8.138;2022-09-29T19:25:38;9.60;99.90
33994;DHT22;20673;48.980;8.138;2022-09-29T19:28:05;9.60;99.90
33994;DHT22;20673;48.980;8.138;2022-09-29T19:30:35;9.50;99.90
33994;DHT22;20673;48.980;8.138;2022-09-29T19:33:04;9.50;99.90